Time;durP1;ratioP1;P1;durP2;ratioP2;P2;SDS_P1;SDS_P2;PMS_P1;PMS_P2;Temp;Humidity;BMP_temperature;BMP_pressure;BME280_temperature;BME280_humidity;BME280_pressure;Samples;Min_cycle;Max_cycle;Signal;HPM_P1;HPM_P2
2023/07/30 00:01:02;;;;;;;9.90;9.60;;;18.80;99.90;;;;;;6288531;22;20256;-86
2023/07/30 00:03:29;;;;;;;9.93;9.63;;;18.70;99.90;;;;;;6289767;22;20268;-86
2023/07/30 00:06:00;;;;;;;9.90;9.60;;;18.70;99.90;;;;;;6290259;22;20251;-86
2023/07/30 00:08:27;;;;;;;9.77;9.48;;;18.80;99.90;;;;;;6290240;22;20185;-86
2023/07/30 00:10:54;;;;;;;9.90;9.60;;;18.80;99.90;;;;;;6289185;22;20664;-86
2023/07/30 00:13:22;;;;;;;9.77;9.48;;;18.80;99.90;;;;;;6289088;22;20684;-85
2023/07/30 00:15:49;;;;;;;9.70;9.40;;;18.80;99.90;;;;;;6289642;22;20201;-86
2023/07/30 00:18:20;;;;;;;9.60;9.30;;;18.70;99.90;;;;;;6288740;22;20198;-87
2023/07/30 00:20:47;;;;;;;9.50;9.20;;;18.70;99.90;;;;;;6289134;22;20190;-86
2023/07/30 00:23:16;;;;;;;9.57;9.27;;;18.70;99.90;;;;;;6289919;22;20248;-86
2023/07/30 00:25:45;;;;;;;9.70;9.40;;;18.70;99.90;;;;;;6293027;22;20194;-86
2023/07/30 00:28:12;;;;;;;9.80;9.50;;;18.70;99.90;;;;;;6287720;22;20194;-86
2023/07/30 00:30:44;;;;;;;9.48;9.18;;;18.70;99.90;;;;;;6293213;22;20189;-86
2023/07/30 00:33:12;;;;;;;9.70;9.40;;;18.70;99.90;;;;;;6290098;22;20289;-84
2023/07/30 00:35:42;;;;;;;9.68;9.38;;;18.80;99.90;;;;;;6289127;22;20189;-84
2023/07/30 00:38:09;;;;;;;9.50;9.20;;;18.70;99.90;;;;;;6288541;22;20194;-84
2023/07/30 00:40:42;;;;;;;9.40;9.10;;;18.70;99.90;;;;;;6288693;22;20207;-84
2023/07/30 00:43:10;;;;;;;9.50;9.20;;;18.70;99.90;;;;;;6288355;22;20213;-85
2023/07/30 00:45:37;;;;;;;9.60;9.30;;;18.70;99.90;;;;;;6289019;22;20201;-84
2023/07/30 00:48:05;;;;;;;9.82;9.52;;;18.70;99.90;;;;;;6288170;22;20198;-84
2023/07/30 00:50:34;;;;;;;9.80;9.50;;;18.70;99.90;;;;;;6287980;22;20277;-85
2023/07/30 00:53:01;;;;;;;9.85;9.55;;;18.70;99.90;;;;;;6287763;22;20267;-85
2023/07/30 00:55:29;;;;;;;9.75;9.45;;;18.80;99.90;;;;;;6288170;22;20197;-85
2023/07/30 00:57:59;;;;;;;9.65;9.35;;;18.80;99.90;;;;;;6287496;22;20217;-85
2023/07/30 01:00:26;;;;;;;9.50;9.20;;;18.80;99.90;;;;;;6287380;22;20330;-85
2023/07/30 01:02:54;;;;;;;9.80;9.50;;;18.90;99.90;;;;;;6286816;22;20254;-85
2023/07/30 01:05:21;;;;;;;9.82;9.52;;;18.90;99.90;;;;;;6287792;22;20284;-85
2023/07/30 01:07:49;;;;;;;9.90;9.60;;;18.90;99.90;;;;;;6288397;22;20715;-85
2023/07/30 01:10:17;;;;;;;9.50;9.20;;;18.90;99.90;;;;;;6288471;22;20194;-85
2023/07/30 01:12:45;;;;;;;9.57;9.27;;;18.90;99.90;;;;;;6286390;22;20201;-86
2023/07/30 01:15:17;;;;;;;9.32;9.02;;;18.90;99.90;;;;;;6298145;22;20240;-86
2023/07/30 01:17:46;;;;;;;9.25;8.95;;;18.70;99.90;;;;;;6305246;22;20204;-87
2023/07/30 01:20:16;;;;;;;9.10;8.80;;;18.60;99.90;;;;;;6311224;22;20212;-86
2023/07/30 01:22:45;;;;;;;9.00;8.70;;;18.50;99.90;;;;;;6311410;22;20190;-86
2023/07/30 01:25:15;;;;;;;9.05;8.75;;;18.40;99.90;;;;;;6311328;22;20217;-86
2023/07/30 01:27:53;;;;;;;9.15;8.85;;;18.40;99.90;;;;;;6301869;22;20204;-86
2023/07/30 01:30:27;;;;;;;8.95;8.65;;;18.40;99.90;;;;;;6288267;22;20203;-85
2023/07/30 01:36:38;;;;;;;9.10;8.80;;;18.40;99.90;;;;;;6286110;22;20177;-87
2023/07/30 01:39:09;;;;;;;9.05;8.75;;;18.40;99.90;;;;;;6287131;22;20190;-87
2023/07/30 01:41:37;;;;;;;9.07;8.77;;;18.40;99.90;;;;;;6287985;22;20190;-86
2023/07/30 01:44:07;;;;;;;9.00;8.70;;;18.40;99.90;;;;;;6286440;22;20204;-86
2023/07/30 01:46:35;;;;;;;9.18;8.88;;;18.50;99.90;;;;;;6286878;22;20185;-87
2023/07/30 01:49:03;;;;;;;9.10;8.80;;;18.40;99.90;;;;;;6285774;22;20197;-87
2023/07/30 01:51:33;;;;;;;9.10;8.80;;;18.40;99.90;;;;;;6285793;22;20201;-87
2023/07/30 01:54:02;;;;;;;9.10;8.80;;;18.40;99.90;;;;;;6285529;22;20211;-86
2023/07/30 01:56:31;;;;;;;9.00;8.70;;;18.40;99.90;;;;;;6286334;22;20193;-87
2023/07/30 01:58:58;;;;;;;9.02;8.73;;;18.40;99.90;;;;;;6286313;22;20255;-87
2023/07/30 02:01:25;;;;;;;8.95;8.65;;;18.40;99.90;;;;;;6286116;22;20257;-86
2023/07/30 02:03:53;;;;;;;9.00;8.70;;;18.30;99.90;;;;;;6297005;22;20288;-85
2023/07/30 02:06:20;;;;;;;9.00;8.70;;;18.30;99.90;;;;;;6304527;22;20228;-86
2023/07/30 02:08:48;;;;;;;9.00;8.70;;;18.20;99.90;;;;;;6296950;22;20200;-86
2023/07/30 02:11:17;;;;;;;9.10;8.80;;;18.20;99.90;;;;;;6287590;22;20264;-87
2023/07/30 02:13:50;;;;;;;8.98;8.68;;;18.20;99.90;;;;;;6285949;22;20205;-87
2023/07/30 02:16:18;;;;;;;8.70;8.40;;;18.20;99.90;;;;;;6286989;22;20194;-87
2023/07/30 02:18:45;;;;;;;8.75;8.45;;;18.10;99.90;;;;;;6288637;22;20190;-86
2023/07/30 02:21:15;;;;;;;8.63;8.32;;;18.10;99.90;;;;;;6296499;22;20208;-86
2023/07/30 02:23:42;;;;;;;8.80;8.50;;;18.00;99.90;;;;;;6296285;22;20203;-86
2023/07/30 02:26:11;;;;;;;8.50;8.30;;;18.00;99.90;;;;;;6289914;22;20197;-86
2023/07/30 02:28:40;;;;;;;8.65;8.35;;;18.00;99.90;;;;;;6290006;22;20194;-86
2023/07/30 02:31:09;;;;;;;8.70;8.40;;;18.00;99.90;;;;;;6288584;22;20198;-86
2023/07/30 02:33:36;;;;;;;8.80;8.50;;;17.90;99.90;;;;;;6287381;22;20233;-86
2023/07/30 02:36:06;;;;;;;8.77;8.48;;;17.90;99.90;;;;;;6294247;22;20184;-85
2023/07/30 02:38:34;;;;;;;8.68;8.38;;;17.90;99.90;;;;;;6306340;22;20198;-86
2023/07/30 02:41:19;;;;;;;8.70;8.40;;;17.90;99.90;;;;;;6286625;22;20201;-86
2023/07/30 02:43:49;;;;;;;8.90;8.60;;;17.90;99.90;;;;;;6286263;22;20236;-86
2023/07/30 02:46:19;;;;;;;8.95;8.65;;;17.90;99.90;;;;;;6285927;22;20201;-86
2023/07/30 02:48:46;;;;;;;8.80;8.50;;;17.90;99.90;;;;;;6291648;22;20199;-87
2023/07/30 02:51:14;;;;;;;8.90;8.60;;;17.90;99.90;;;;;;6285872;22;20197;-86
2023/07/30 02:53:45;;;;;;;8.77;8.48;;;17.90;99.90;;;;;;6286205;22;20209;-86
2023/07/30 02:56:12;;;;;;;8.80;8.50;;;17.90;99.90;;;;;;6286654;22;20201;-86
2023/07/30 02:58:41;;;;;;;8.88;8.57;;;17.90;99.90;;;;;;6289892;22;20255;-87
2023/07/30 03:01:12;;;;;;;9.05;8.75;;;17.90;99.90;;;;;;6298489;22;20206;-86
2023/07/30 03:03:41;;;;;;;8.75;8.45;;;17.90;99.90;;;;;;6288208;22;20202;-87
2023/07/30 03:06:09;;;;;;;8.73;8.43;;;17.80;99.90;;;;;;6287807;22;20197;-86
2023/07/30 03:08:38;;;;;;;8.77;8.48;;;17.80;99.90;;;;;;6287443;22;20198;-86
2023/07/30 03:11:05;;;;;;;8.75;8.45;;;17.80;99.90;;;;;;6286755;22;20197;-86
2023/07/30 03:13:32;;;;;;;8.70;8.40;;;17.80;99.90;;;;;;6285090;22;20205;-78
2023/07/30 03:15:59;;;;;;;8.73;8.43;;;17.80;99.90;;;;;;6285578;22;20208;-79
2023/07/30 03:18:26;;;;;;;8.80;8.50;;;17.80;99.90;;;;;;6286115;22;20668;-80
2023/07/30 03:21:00;;;;;;;8.90;8.60;;;17.80;99.90;;;;;;6285557;22;20201;-80
2023/07/30 03:23:27;;;;;;;8.70;8.40;;;17.80;99.90;;;;;;6286753;22;20212;-79
2023/07/30 03:25:54;;;;;;;8.88;8.57;;;17.80;99.90;;;;;;6286548;22;20228;-80
2023/07/30 03:28:21;;;;;;;8.90;8.60;;;17.80;99.90;;;;;;6286551;22;20343;-83
2023/07/30 03:30:48;;;;;;;9.00;8.70;;;17.80;99.90;;;;;;6286176;22;20205;-80
2023/07/30 03:33:15;;;;;;;8.85;8.55;;;17.80;99.90;;;;;;6285977;22;20212;-80
2023/07/30 03:35:42;;;;;;;9.07;8.77;;;17.80;99.90;;;;;;6286257;22;20194;-80
2023/07/30 03:38:10;;;;;;;9.00;8.70;;;17.80;99.90;;;;;;6287297;22;20194;-80
2023/07/30 03:40:38;;;;;;;8.88;8.57;;;17.70;99.90;;;;;;6286422;22;20190;-80
2023/07/30 03:43:05;;;;;;;9.00;8.70;;;17.70;99.90;;;;;;6286253;22;20193;-80
2023/07/30 03:45:32;;;;;;;9.05;8.75;;;17.70;99.90;;;;;;6286971;22;20193;-79
2023/07/30 03:47:59;;;;;;;9.00;8.70;;;17.70;99.90;;;;;;6286832;22;20189;-80
2023/07/30 03:50:26;;;;;;;9.00;8.70;;;17.70;99.90;;;;;;6286592;22;20277;-80
2023/07/30 03:52:54;;;;;;;9.25;8.95;;;17.60;99.90;;;;;;6286585;22;20197;-80
2023/07/30 03:55:23;;;;;;;9.20;8.90;;;17.60;99.90;;;;;;6287035;22;20209;-80
2023/07/30 03:57:50;;;;;;;9.10;8.80;;;17.60;99.90;;;;;;6287468;22;20202;-79
2023/07/30 04:00:17;;;;;;;9.00;8.70;;;17.60;99.90;;;;;;6287008;22;20190;-79
2023/07/30 04:02:44;;;;;;;8.98;8.68;;;17.60;99.90;;;;;;6294891;22;20201;-79
2023/07/30 04:05:11;;;;;;;8.80;8.50;;;17.60;99.90;;;;;;6285194;22;20202;-80
2023/07/30 04:07:38;;;;;;;8.88;8.57;;;17.60;99.90;;;;;;6286700;22;20213;-79
2023/07/30 04:10:07;;;;;;;8.80;8.50;;;17.60;99.90;;;;;;6287164;22;20259;-80
2023/07/30 04:12:35;;;;;;;8.80;8.50;;;17.60;99.90;;;;;;6288274;22;20257;-79
2023/07/30 04:15:02;;;;;;;8.80;8.50;;;17.70;99.90;;;;;;6288830;22;20260;-80
2023/07/30 04:17:29;;;;;;;9.07;8.77;;;17.60;99.90;;;;;;6288144;22;20201;-80
2023/07/30 04:19:56;;;;;;;8.95;8.65;;;17.70;99.90;;;;;;6288092;22;20201;-79
2023/07/30 04:22:23;;;;;;;9.00;8.70;;;17.70;99.90;;;;;;6288017;22;20244;-80
2023/07/30 04:24:51;;;;;;;9.00;8.70;;;17.70;99.90;;;;;;6288331;22;20198;-80
2023/07/30 04:27:18;;;;;;;9.18;8.88;;;17.70;99.90;;;;;;6287598;22;20228;-80
2023/07/30 04:29:46;;;;;;;8.93;8.63;;;17.70;99.90;;;;;;6288515;22;20201;-80
2023/07/30 04:32:13;;;;;;;8.90;8.60;;;17.70;99.90;;;;;;6287591;22;20296;-80
2023/07/30 04:34:40;;;;;;;8.93;8.63;;;17.70;99.90;;;;;;6288318;22;20284;-80
2023/07/30 04:37:08;;;;;;;8.88;8.57;;;17.70;99.90;;;;;;6289111;22;20217;-80
2023/07/30 04:39:35;;;;;;;8.95;8.65;;;17.70;99.90;;;;;;6288876;22;20250;-79
2023/07/30 04:42:03;;;;;;;8.88;8.57;;;17.80;99.90;;;;;;6288585;22;20249;-80
2023/07/30 04:44:30;;;;;;;9.20;8.90;;;17.80;99.90;;;;;;6301903;22;20181;-79
2023/07/30 04:46:58;;;;;;;8.90;8.60;;;17.80;99.90;;;;;;6310437;22;20189;-79
2023/07/30 04:49:25;;;;;;;8.88;8.57;;;17.70;99.90;;;;;;6311070;22;20249;-79
2023/07/30 04:51:52;;;;;;;8.80;8.50;;;17.70;99.90;;;;;;6310507;22;20241;-79
2023/07/30 04:54:19;;;;;;;8.70;8.40;;;17.70;99.90;;;;;;6307702;22;20214;-79
2023/07/30 04:56:46;;;;;;;8.90;8.60;;;17.70;99.90;;;;;;6289138;22;20204;-81
2023/07/30 04:59:13;;;;;;;8.80;8.50;;;17.80;99.90;;;;;;6287106;22;20197;-79
2023/07/30 05:01:40;;;;;;;8.80;8.50;;;17.80;99.90;;;;;;6288412;22;20201;-80
2023/07/30 05:04:09;;;;;;;8.80;8.50;;;17.90;99.90;;;;;;6289689;22;20205;-80
2023/07/30 05:06:36;;;;;;;8.73;8.43;;;17.90;99.90;;;;;;6289379;22;20190;-80
2023/07/30 05:09:03;;;;;;;8.52;8.32;;;17.90;99.90;;;;;;6289752;22;20673;-80
2023/07/30 05:11:30;;;;;;;8.50;8.30;;;18.00;99.90;;;;;;6288801;22;20273;-79
2023/07/30 05:13:57;;;;;;;8.50;8.30;;;18.10;99.90;;;;;;6288201;22;20256;-79
2023/07/30 05:16:24;;;;;;;8.57;8.38;;;18.10;99.90;;;;;;6289117;22;20233;-79
2023/07/30 05:18:51;;;;;;;8.50;8.30;;;18.10;99.90;;;;;;6290267;22;20193;-79
2023/07/30 05:21:19;;;;;;;8.52;8.32;;;18.10;99.90;;;;;;6289206;22;20229;-80
2023/07/30 05:23:46;;;;;;;8.40;8.20;;;18.10;99.90;;;;;;6287783;22;20214;-80
2023/07/30 05:26:13;;;;;;;8.50;8.30;;;18.10;99.90;;;;;;6287855;22;20205;-80
2023/07/30 05:28:40;;;;;;;8.40;8.20;;;18.00;99.90;;;;;;6289265;22;20209;-80
2023/07/30 05:31:07;;;;;;;8.32;8.13;;;18.00;99.90;;;;;;6288689;22;20190;-80
2023/07/30 05:33:34;;;;;;;8.20;8.00;;;18.00;99.90;;;;;;6287417;22;20204;-79
2023/07/30 05:36:01;;;;;;;8.20;8.00;;;18.00;99.90;;;;;;6288501;22;20336;-78
2023/07/30 05:38:29;;;;;;;8.23;8.02;;;18.10;99.90;;;;;;6288272;22;20193;-80
2023/07/30 05:40:57;;;;;;;8.20;8.00;;;18.10;99.90;;;;;;6288771;22;20284;-80
2023/07/30 05:43:24;;;;;;;8.27;8.07;;;18.10;99.90;;;;;;6288732;22;20206;-80
2023/07/30 05:45:51;;;;;;;7.93;7.72;;;18.10;99.90;;;;;;6295563;22;20241;-79
2023/07/30 05:48:18;;;;;;;7.97;7.78;;;18.10;99.90;;;;;;6294513;22;20197;-80
2023/07/30 05:50:45;;;;;;;8.20;8.00;;;18.10;99.90;;;;;;6292554;22;20224;-80
2023/07/30 05:53:12;;;;;;;8.20;8.00;;;18.20;99.90;;;;;;6286642;22;20253;-79
2023/07/30 05:55:41;;;;;;;8.20;8.00;;;18.20;99.90;;;;;;6284097;22;20260;-78
2023/07/30 05:58:07;;;;;;;8.00;7.80;;;18.30;99.90;;;;;;6284004;22;20200;-78
2023/07/30 06:00:35;;;;;;;8.05;7.85;;;18.30;99.90;;;;;;6285712;22;20221;-78
2023/07/30 06:03:03;;;;;;;8.10;7.90;;;18.40;99.90;;;;;;6284115;22;20245;-79
2023/07/30 06:05:30;;;;;;;8.07;7.88;;;18.50;99.90;;;;;;6284663;22;20232;-79
2023/07/30 06:07:57;;;;;;;8.07;7.88;;;18.60;99.90;;;;;;6285143;22;20267;-79
2023/07/30 06:10:24;;;;;;;8.07;7.88;;;18.70;99.90;;;;;;6284420;22;20248;-79
2023/07/30 06:12:53;;;;;;;8.07;7.88;;;18.70;99.90;;;;;;6284176;22;20212;-79
2023/07/30 06:15:20;;;;;;;8.10;7.90;;;18.80;99.90;;;;;;6287168;22;20261;-78
2023/07/30 06:17:47;;;;;;;8.38;8.18;;;18.90;99.90;;;;;;6287679;22;20207;-77
2023/07/30 06:20:18;;;;;;;8.50;8.30;;;19.00;99.90;;;;;;6287220;22;20206;-78
2023/07/30 06:22:45;;;;;;;8.55;8.35;;;19.10;99.90;;;;;;6284433;22;20217;-79
2023/07/30 06:25:12;;;;;;;8.65;8.45;;;19.30;99.90;;;;;;6284028;22;20201;-78
2023/07/30 06:27:39;;;;;;;8.90;8.60;;;19.30;99.90;;;;;;6282864;22;20200;-78
2023/07/30 06:30:09;;;;;;;8.68;8.48;;;19.50;99.90;;;;;;6285547;22;20233;-79
2023/07/30 06:32:36;;;;;;;8.95;8.65;;;19.60;99.90;;;;;;6283731;22;20220;-78
2023/07/30 06:35:04;;;;;;;9.10;8.80;;;19.70;99.90;;;;;;6284566;22;20201;-78
2023/07/30 06:37:31;;;;;;;8.90;8.60;;;19.80;99.90;;;;;;6290093;22;20189;-78
2023/07/30 06:39:58;;;;;;;9.20;8.90;;;19.90;99.90;;;;;;6288170;22;20676;-78
2023/07/30 06:42:25;;;;;;;9.50;9.20;;;19.90;99.90;;;;;;6283948;22;20216;-78
2023/07/30 06:44:54;;;;;;;9.40;9.10;;;20.00;99.90;;;;;;6284545;22;20244;-79
2023/07/30 06:47:22;;;;;;;9.45;9.15;;;20.00;99.90;;;;;;6284257;22;20206;-78
2023/07/30 06:49:49;;;;;;;9.48;9.18;;;20.00;99.90;;;;;;6283768;22;20198;-79
2023/07/30 06:52:16;;;;;;;9.60;9.30;;;20.00;99.90;;;;;;6283456;22;20193;-78
2023/07/30 06:54:43;;;;;;;9.35;9.05;;;19.90;99.90;;;;;;6283671;22;20297;-78
2023/07/30 06:57:10;;;;;;;9.23;8.93;;;20.00;99.90;;;;;;6283272;22;20207;-78
2023/07/30 06:59:37;;;;;;;9.25;8.95;;;20.00;99.90;;;;;;6282886;22;20244;-79
2023/07/30 07:02:05;;;;;;;9.43;9.13;;;20.10;99.90;;;;;;6282536;22;20284;-78
2023/07/30 07:04:33;;;;;;;9.40;9.10;;;20.20;99.90;;;;;;6283397;22;20200;-79
2023/07/30 07:07:03;;;;;;;9.63;9.32;;;20.30;99.90;;;;;;6283153;22;20236;-78
2023/07/30 07:09:30;;;;;;;9.25;8.95;;;20.30;99.90;;;;;;6283009;22;20208;-79
2023/07/30 07:11:57;;;;;;;9.63;9.32;;;20.40;99.90;;;;;;6283106;22;20233;-78
2023/07/30 07:14:24;;;;;;;9.40;9.10;;;20.40;99.90;;;;;;6283447;22;20201;-79
2023/07/30 07:16:51;;;;;;;9.50;9.20;;;20.50;99.90;;;;;;6283580;22;20265;-79
2023/07/30 07:19:18;;;;;;;9.63;9.32;;;20.60;99.90;;;;;;6282948;22;20204;-78
2023/07/30 07:21:46;;;;;;;9.40;9.10;;;20.60;99.90;;;;;;6282906;22;20280;-78
2023/07/30 07:24:18;;;;;;;9.32;9.02;;;20.50;99.90;;;;;;6283832;22;20261;-78
2023/07/30 07:26:45;;;;;;;9.43;9.13;;;20.40;99.90;;;;;;6283768;22;20189;-78
2023/07/30 07:29:12;;;;;;;9.90;9.60;;;20.50;99.90;;;;;;6283787;22;20190;-78
2023/07/30 07:31:39;;;;;;;9.90;9.60;;;20.40;99.90;;;;;;6292818;22;20201;-78
2023/07/30 07:34:06;;;;;;;10.25;9.95;;;20.50;99.90;;;;;;6282841;22;20205;-78
2023/07/30 07:36:35;;;;;;;9.50;9.20;;;20.50;99.90;;;;;;6282986;22;20285;-79
2023/07/30 07:39:04;;;;;;;9.68;9.38;;;20.60;99.90;;;;;;6285087;22;20209;-77
2023/07/30 07:41:31;;;;;;;9.60;9.30;;;20.60;99.90;;;;;;6285020;22;20194;-78
2023/07/30 07:43:58;;;;;;;9.80;9.50;;;20.70;99.90;;;;;;6285628;22;20280;-78
2023/07/30 07:46:27;;;;;;;9.50;9.20;;;20.80;99.90;;;;;;6288437;22;20250;-78
2023/07/30 07:48:54;;;;;;;9.93;9.63;;;20.80;99.90;;;;;;6288837;22;20197;-78
2023/07/30 07:51:21;;;;;;;10.10;9.80;;;20.80;99.90;;;;;;6287889;22;20206;-78
2023/07/30 07:53:48;;;;;;;10.05;9.75;;;20.80;99.90;;;;;;6287933;22;20211;-78
2023/07/30 07:56:16;;;;;;;10.40;10.10;;;20.70;99.90;;;;;;6288925;22;20209;-78
2023/07/30 07:58:43;;;;;;;10.20;9.90;;;20.80;99.90;;;;;;6288744;22;20206;-78
2023/07/30 08:01:10;;;;;;;10.10;9.80;;;20.70;99.90;;;;;;6287829;22;20204;-78
2023/07/30 08:03:37;;;;;;;10.15;9.85;;;20.80;99.90;;;;;;6288272;22;20300;-78
2023/07/30 08:06:04;;;;;;;9.98;9.68;;;20.80;99.90;;;;;;6286579;22;20201;-79
2023/07/30 08:08:31;;;;;;;9.80;9.50;;;20.90;99.90;;;;;;6287512;22;20201;-78
2023/07/30 08:10:59;;;;;;;9.98;9.68;;;20.90;99.90;;;;;;6287075;22;20240;-79
2023/07/30 08:13:27;;;;;;;10.20;9.90;;;21.00;99.90;;;;;;6286653;22;20240;-78
2023/07/30 08:15:54;;;;;;;10.00;9.70;;;21.10;99.90;;;;;;6286447;22;20225;-78
2023/07/30 08:18:21;;;;;;;10.20;9.90;;;21.00;99.90;;;;;;6286456;22;20208;-78
2023/07/30 08:20:50;;;;;;;10.02;9.73;;;21.00;99.90;;;;;;6286587;22;20205;-78
2023/07/30 08:23:17;;;;;;;9.80;9.50;;;21.00;99.90;;;;;;6288050;22;20204;-78
2023/07/30 08:25:44;;;;;;;9.68;9.38;;;21.00;99.90;;;;;;6290322;22;20201;-78
2023/07/30 08:28:11;;;;;;;9.52;9.23;;;21.10;99.90;;;;;;6288688;22;20224;-79
2023/07/30 08:30:39;;;;;;;9.68;9.38;;;21.20;99.90;;;;;;6286336;22;20205;-79
2023/07/30 08:33:06;;;;;;;9.70;9.40;;;21.30;99.90;;;;;;6284569;22;20209;-79
2023/07/30 08:35:33;;;;;;;9.68;9.38;;;21.40;99.90;;;;;;6286411;22;20213;-79
2023/07/30 08:38:00;;;;;;;10.10;9.80;;;21.60;99.90;;;;;;6284041;22;20201;-77
2023/07/30 08:40:28;;;;;;;10.20;9.90;;;21.70;99.90;;;;;;6282989;22;20205;-77
2023/07/30 08:42:55;;;;;;;9.90;9.60;;;21.80;99.90;;;;;;6282876;22;20280;-78
2023/07/30 08:45:22;;;;;;;9.88;9.57;;;21.80;99.90;;;;;;6283091;22;20209;-77
2023/07/30 08:47:50;;;;;;;10.00;9.70;;;21.80;99.90;;;;;;6282804;22;20208;-77
2023/07/30 08:50:17;;;;;;;9.80;9.50;;;21.80;99.90;;;;;;6281922;22;20206;-78
2023/07/30 08:52:44;;;;;;;9.70;9.40;;;21.80;99.90;;;;;;6282373;22;20206;-78
2023/07/30 08:55:12;;;;;;;9.75;9.45;;;21.80;99.90;;;;;;6283141;22;20194;-79
2023/07/30 08:57:42;;;;;;;9.60;9.30;;;21.70;99.90;;;;;;6283476;22;20199;-79
2023/07/30 09:00:11;;;;;;;9.90;9.60;;;21.70;99.90;;;;;;6283020;22;20284;-79
2023/07/30 09:02:44;;;;;;;9.75;9.45;;;21.70;99.90;;;;;;6282957;22;20205;-79
2023/07/30 09:05:12;;;;;;;9.75;9.45;;;21.70;99.90;;;;;;6283522;22;20190;-79
2023/07/30 09:07:39;;;;;;;10.10;9.80;;;21.80;99.90;;;;;;6282768;22;20205;-79
2023/07/30 09:10:07;;;;;;;9.93;9.63;;;21.70;99.90;;;;;;6282726;22;20182;-79
2023/07/30 09:13:02;;;;;;;10.25;9.95;;;21.70;99.90;;;;;;6278715;22;20201;-88
2023/07/30 09:59:56;;;;;;;;;;;;;;;;;;;;;
2023/07/30 10:21:10;;;;;;;;;;;;;;;;;;;;;
2023/07/30 10:30:25;;;;;;;8.90;8.60;;;20.60;99.90;;;;;;6227318;22;20235;-89
2023/07/30 10:33:19;;;;;;;8.75;8.55;;;19.90;99.90;;;;;;6227933;22;20230;-89
2023/07/30 10:36:03;;;;;;;;;;;;;;;;;;;;;
2023/07/30 10:39:04;;;;;;;8.65;8.45;;;19.40;99.90;;;;;;6228253;23;20194;-89
2023/07/30 10:41:33;;;;;;;8.50;8.30;;;19.10;99.90;;;;;;6240621;22;20202;-88
2023/07/30 10:44:14;;;;;;;8.40;8.20;;;18.90;99.90;;;;;;6248701;22;20299;-89
2023/07/30 10:46:42;;;;;;;8.02;7.82;;;18.90;99.90;;;;;;6243042;22;20191;-90
2023/07/30 10:49:48;;;;;;;;;;;;;;;;;;;;;
2023/07/30 10:52:30;;;;;;;7.60;7.40;;;19.40;99.90;;;;;;6231276;22;20225;-90
2023/07/30 10:55:44;;;;;;;7.68;7.47;;;19.70;99.90;;;;;;6230158;22;20195;-90
2023/07/30 10:58:28;;;;;;;7.70;7.50;;;20.00;99.90;;;;;;6228816;22;20205;-90
2023/07/30 11:01:25;;;;;;;8.02;7.82;;;20.20;99.90;;;;;;6228460;22;20198;-90
2023/07/30 11:04:14;;;;;;;8.50;8.30;;;20.50;99.90;;;;;;6228955;22;20211;-90
2023/07/30 11:07:12;;;;;;;9.60;9.30;;;20.60;99.90;;;;;;6227526;22;20191;-89
2023/07/30 11:10:14;;;;;;;9.32;9.02;;;20.70;99.90;;;;;;6227558;23;20251;-89
2023/07/30 11:13:41;;;;;;;9.90;9.60;;;20.80;99.90;;;;;;6227307;22;20198;-90
2023/07/30 11:17:17;;;;;;;9.50;9.20;;;20.70;99.90;;;;;;6106084;23;20221;-90
2023/07/30 11:20:39;;;;;;;9.68;9.38;;;20.70;99.90;;;;;;6106220;23;20202;-90
2023/07/30 11:30:02;;;;;;;9.48;9.18;;;20.90;99.90;;;;;;6062747;23;20252;-90
2023/07/30 11:32:57;;;;;;;9.20;8.90;;;21.30;99.90;;;;;;6229101;22;20191;-91
2023/07/30 11:36:09;;;;;;;9.48;9.18;;;21.80;99.90;;;;;;6236111;23;20242;-90
2023/07/30 11:39:24;;;;;;;9.95;9.65;;;22.60;99.90;;;;;;6224201;23;20246;-90
2023/07/30 11:45:27;;;;;;;9.70;9.40;;;22.80;99.90;;;;;;6228300;22;21025;-90
2023/07/30 11:48:35;;;;;;;;;;;;;;;;;;;;;
2023/07/30 11:51:47;;;;;;;;;;;;;;;;;;;;;
2023/07/30 12:01:21;;;;;;;10.20;9.90;;;22.80;99.90;;;;;;6229506;22;20199;-90
2023/07/30 12:07:15;;;;;;;;;;;;;;;;;;;;;
2023/07/30 12:11:04;;;;;;;;;;;;;;;;;;;;;
2023/07/30 12:14:10;;;;;;;10.45;10.15;;;23.00;99.90;;;;;;6230888;22;20206;-90
2023/07/30 12:20:42;;;;;;;;;;;;;;;;;;;;;
2023/07/30 12:23:52;;;;;;;;;;;;;;;;;;;;;
2023/07/30 12:27:02;;;;;;;9.93;9.63;;;23.20;99.90;;;;;;6229214;23;20199;-90
2023/07/30 12:30:23;;;;;;;10.25;9.95;;;23.70;99.90;;;;;;6231440;22;20226;-90
2023/07/30 12:33:12;;;;;;;10.10;9.80;;;24.00;99.90;;;;;;6226632;22;20277;-90
2023/07/30 12:37:04;;;;;;;;;;;;;;;;;;;;;
2023/07/30 12:40:17;;;;;;;10.20;9.90;;;24.10;99.90;;;;;;6229730;23;20339;-90
2023/07/30 12:46:52;;;;;;;10.00;9.70;;;23.70;99.90;;;;;;6033007;23;20270;-90
2023/07/30 12:56:06;;;;;;;;;;;;;;;;;;;;;
2023/07/30 12:58:48;;;;;;;10.00;9.70;;;23.20;99.90;;;;;;6241808;22;20243;-89
2023/07/30 13:02:09;;;;;;;9.75;9.45;;;23.50;99.90;;;;;;6231650;22;20194;-90
2023/07/30 13:04:54;;;;;;;9.90;9.60;;;23.40;99.90;;;;;;6106885;23;20209;-89
2023/07/30 13:08:43;;;;;;;9.80;9.50;;;23.30;99.90;;;;;;6196205;22;20288;-90
2023/07/30 13:12:00;;;;;;;;;;;;;;;;;;;;;
2023/07/30 13:14:40;;;;;;;9.75;9.45;;;23.20;99.90;;;;;;6226640;22;20206;-90
2023/07/30 13:17:17;;;;;;;10.13;9.82;;;24.00;99.90;;;;;;6228030;22;20206;-89
2023/07/30 13:20:25;;;;;;;10.10;9.80;;;24.70;99.90;;;;;;6228191;23;20226;-90
2023/07/30 13:27:17;;;;;;;10.20;9.90;;;25.20;99.90;;;;;;6230522;22;20258;-89
2023/07/30 13:30:32;;;;;;;10.00;9.70;;;25.30;99.90;;;;;;6190895;23;20280;-89
2023/07/30 13:33:18;;;;;;;9.93;9.63;;;25.70;99.90;;;;;;6206300;22;20258;-90
2023/07/30 13:36:08;;;;;;;;;;;;;;;;;;;;;
2023/07/30 13:38:56;;;;;;;9.40;9.10;;;25.40;99.90;;;;;;6226883;23;20202;-90
2023/07/30 13:42:05;;;;;;;9.70;9.40;;;25.10;99.90;;;;;;6226252;23;20206;-90
2023/07/30 13:44:59;;;;;;;9.70;9.40;;;25.20;99.90;;;;;;6226404;22;20209;-90
2023/07/30 13:48:17;;;;;;;;;;;;;;;;;;;;;
2023/07/30 13:51:15;;;;;;;9.48;9.18;;;23.90;99.90;;;;;;6227117;22;20203;-90
2023/07/30 13:57:59;;;;;;;9.70;9.40;;;23.50;99.90;;;;;;6104653;23;20214;-90
2023/07/30 14:00:41;;;;;;;9.93;9.63;;;23.50;99.90;;;;;;6174058;22;20241;-90
2023/07/30 14:03:41;;;;;;;;;;;;;;;;;;;;;
2023/07/30 14:06:40;;;;;;;10.00;9.70;;;23.10;99.90;;;;;;6220835;22;20199;-89
2023/07/30 14:09:44;;;;;;;9.90;9.60;;;22.90;99.90;;;;;;6216607;22;20257;-90
2023/07/30 14:12:39;;;;;;;10.00;9.70;;;23.00;99.90;;;;;;6226745;22;20257;-89
2023/07/30 14:15:42;;;;;;;10.00;9.70;;;23.50;99.90;;;;;;6226290;23;20199;-90
2023/07/30 14:18:29;;;;;;;9.68;9.38;;;24.30;99.90;;;;;;6226222;23;20280;-90
2023/07/30 14:21:41;;;;;;;;;;;;;;;;;;;;;
2023/07/30 14:24:38;;;;;;;10.30;10.00;;;24.80;99.90;;;;;;6232960;22;20210;-89
2023/07/30 14:27:37;;;;;;;10.20;9.90;;;25.10;99.90;;;;;;6241934;23;20206;-90
2023/07/30 14:30:47;;;;;;;;;;;;;;;;;;;;;
2023/07/30 14:33:48;;;;;;;10.20;9.90;;;25.90;99.90;;;;;;6167524;22;20203;-90
2023/07/30 14:36:21;;;;;;;10.05;9.75;;;25.60;99.90;;;;;;6236304;23;20506;-89
2023/07/30 14:39:09;;;;;;;10.05;9.75;;;25.10;99.90;;;;;;6238099;22;20175;-89
2023/07/30 14:42:02;;;;;;;9.80;9.50;;;24.80;99.90;;;;;;6231465;23;20253;-89
2023/07/30 14:44:43;;;;;;;9.80;9.50;;;24.40;99.90;;;;;;6227045;22;20206;-89
2023/07/30 14:47:41;;;;;;;10.00;9.70;;;24.30;99.90;;;;;;6226551;23;20202;-89
2023/07/30 14:50:14;;;;;;;9.90;9.60;;;24.70;99.90;;;;;;6226618;22;20202;-90
2023/07/30 14:52:55;;;;;;;9.90;9.60;;;25.20;99.90;;;;;;6226335;22;20241;-90
2023/07/30 14:55:40;;;;;;;10.00;9.70;;;25.10;99.90;;;;;;6226699;23;20195;-90
2023/07/30 14:58:31;;;;;;;10.00;9.70;;;25.40;99.90;;;;;;6225920;22;20273;-90
2023/07/30 15:01:49;;;;;;;10.20;9.90;;;25.20;99.90;;;;;;6226027;23;20205;-90
2023/07/30 15:04:59;;;;;;;10.05;9.75;;;25.50;99.90;;;;;;6230872;22;20195;-90
2023/07/30 15:07:57;;;;;;;10.20;9.90;;;25.60;99.90;;;;;;6231391;22;20249;-89
2023/07/30 15:10:47;;;;;;;9.70;9.40;;;25.40;99.90;;;;;;6229289;23;20222;-90
2023/07/30 15:13:14;;;;;;;9.57;9.27;;;25.30;99.90;;;;;;6230536;22;20326;-78
2023/07/30 15:15:42;;;;;;;9.75;9.45;;;25.40;99.90;;;;;;6252239;22;20206;-77
2023/07/30 15:18:09;;;;;;;9.80;9.50;;;25.50;99.90;;;;;;6252316;22;20237;-77
2023/07/30 15:20:36;;;;;;;9.93;9.63;;;25.60;99.90;;;;;;6251542;22;20273;-78
2023/07/30 15:23:05;;;;;;;9.88;9.57;;;26.00;99.90;;;;;;6252014;22;20206;-78
2023/07/30 15:25:32;;;;;;;9.98;9.68;;;26.10;99.90;;;;;;6252172;22;20677;-77
2023/07/30 15:28:00;;;;;;;9.70;9.40;;;26.30;99.90;;;;;;6252119;22;20202;-78
2023/07/30 15:30:27;;;;;;;9.80;9.50;;;26.40;99.90;;;;;;6252248;22;20217;-78
2023/07/30 15:32:54;;;;;;;9.98;9.68;;;26.50;99.90;;;;;;6252549;22;20281;-78
2023/07/30 15:35:21;;;;;;;9.90;9.60;;;26.50;99.90;;;;;;6262090;22;20201;-78
2023/07/30 15:37:49;;;;;;;10.10;9.80;;;26.70;99.90;;;;;;6255823;22;20202;-78
2023/07/30 15:40:17;;;;;;;10.18;9.88;;;27.00;99.90;;;;;;6256975;22;20203;-78
2023/07/30 15:42:44;;;;;;;10.30;10.00;;;27.30;99.90;;;;;;6252649;22;20206;-78
2023/07/30 15:45:12;;;;;;;10.25;9.95;;;27.40;99.90;;;;;;6252271;22;20280;-78